Time;durP1;ratioP1;P1;durP2;ratioP2;P2;SDS_P1;SDS_P2;PMS_P1;PMS_P2;Temp;Humidity;BMP_temperature;BMP_pressure;BME280_temperature;BME280_humidity;BME280_pressure;Samples;Min_cycle;Max_cycle;Signal;HPM_P1;HPM_P2
2021/09/08 00:01:29;;;;;;;14.33;8.70;;;;;;;12.63;57.20;100863.01;1649080;86;21044;-72
2021/09/08 00:03:56;;;;;;;13.28;8.75;;;;;;;12.62;57.10;100865.41;1661916;85;20987;-70
2021/09/08 00:06:22;;;;;;;17.25;8.85;;;;;;;12.61;57.02;100865.14;1633097;87;21051;-71
2021/09/08 00:08:49;;;;;;;12.63;8.93;;;;;;;12.61;56.93;100867.84;1621701;87;21522;-73
2021/09/08 00:11:15;;;;;;;11.25;8.88;;;;;;;12.61;56.91;100867.28;1642867;87;21134;-74
2021/09/08 00:13:42;;;;;;;17.55;9.15;;;;;;;12.60;56.77;100861.61;1634445;85;21884;-73
2021/09/08 00:16:10;;;;;;;20.45;10.80;;;;;;;12.61;56.79;100857.84;1654010;85;20916;-74
2021/09/08 00:18:38;;;;;;;13.60;10.15;;;;;;;12.61;56.71;100861.09;1654128;85;21007;-75
2021/09/08 00:21:06;;;;;;;11.65;8.73;;;;;;;12.60;56.71;100860.27;1677897;85;20967;-71
2021/09/08 00:23:32;;;;;;;14.45;9.00;;;;;;;12.58;56.65;100862.36;1662849;85;21066;-69
2021/09/08 00:25:59;;;;;;;13.15;8.85;;;;;;;12.57;56.77;100859.89;1654697;85;21081;-71
2021/09/08 00:28:25;;;;;;;12.70;8.45;;;;;;;12.55;56.91;100858.80;1651031;87;21539;-72
2021/09/08 00:30:52;;;;;;;14.58;8.00;;;;;;;12.54;57.02;100862.55;1652366;86;20975;-74
2021/09/08 00:33:18;;;;;;;10.25;7.33;;;;;;;12.54;56.91;100861.72;1649065;86;21023;-70
2021/09/08 00:35:45;;;;;;;13.40;8.50;;;;;;;12.53;56.95;100868.16;1651023;87;21077;-71
2021/09/08 00:38:12;;;;;;;12.23;8.80;;;;;;;12.52;57.00;100866.52;1651182;86;22134;-71
2021/09/08 00:40:39;;;;;;;11.18;8.20;;;;;;;12.50;57.07;100864.59;1636004;87;21097;-71
2021/09/08 00:43:06;;;;;;;12.50;8.28;;;;;;;12.49;57.10;100861.07;1669453;85;21060;-71
2021/09/08 00:45:32;;;;;;;15.55;9.08;;;;;;;12.48;57.07;100868.86;1648329;87;21110;-71
2021/09/08 00:47:59;;;;;;;11.00;7.90;;;;;;;12.46;57.15;100864.77;1648351;87;21080;-71
2021/09/08 00:50:26;;;;;;;13.35;7.95;;;;;;;12.44;57.18;100865.52;1627367;87;22157;-70
2021/09/08 00:52:54;;;;;;;12.13;8.15;;;;;;;12.42;57.20;100871.14;1650995;85;21119;-72
2021/09/08 00:55:25;;;;;;;14.23;8.85;;;;;;;12.41;57.19;100865.47;1621243;87;21030;-68
2021/09/08 00:57:53;;;;;;;13.18;9.23;;;;;;;12.39;57.34;100863.52;1630110;87;21560;-72
2021/09/08 01:00:19;;;;;;;16.30;9.58;;;;;;;12.37;57.30;100863.47;1630279;87;21022;-71
2021/09/08 01:02:47;;;;;;;15.93;9.40;;;;;;;12.35;57.46;100869.09;1629251;87;21086;-71
2021/09/08 01:05:14;;;;;;;14.65;9.50;;;;;;;12.35;57.59;100869.61;1649851;86;21339;-65
2021/09/08 01:07:44;;;;;;;15.03;10.00;;;;;;;12.32;57.73;100871.44;1649657;87;21055;-67
2021/09/08 01:10:12;;;;;;;15.20;9.60;;;;;;;12.32;57.78;100870.09;1649826;87;21493;-66
2021/09/08 01:12:42;;;;;;;14.75;8.63;;;;;;;12.31;57.86;100869.27;1624089;86;21521;-67
2021/09/08 01:15:13;;;;;;;18.87;10.03;;;;;;;12.31;57.93;100859.00;1647027;87;21127;-67
2021/09/08 01:17:42;;;;;;;14.18;8.18;;;;;;;12.30;58.06;100864.92;1677236;85;21528;-66
2021/09/08 01:20:13;;;;;;;11.10;7.47;;;;;;;12.31;57.90;100861.70;1679818;84;20987;-67
2021/09/08 01:22:52;;;;;;;13.95;8.90;;;;;;;12.31;57.67;100861.70;1678736;85;20980;-70
2021/09/08 01:25:21;;;;;;;12.05;8.13;;;;;;;12.29;57.52;100855.70;1707296;84;21114;-67
2021/09/08 01:27:48;;;;;;;12.63;7.95;;;;;;;12.27;57.42;100860.00;1707386;84;21400;-67
2021/09/08 01:30:18;;;;;;;15.25;8.73;;;;;;;12.23;57.43;100850.70;1684934;84;20983;-67
2021/09/08 01:32:44;;;;;;;11.45;8.90;;;;;;;12.19;57.42;100856.27;1683972;84;21003;-67
2021/09/08 01:35:11;;;;;;;16.30;8.85;;;;;;;12.16;57.52;100855.39;1690894;84;20969;-66
2021/09/08 01:37:37;;;;;;;13.48;8.10;;;;;;;12.12;57.59;100856.91;1684942;82;21047;-66
2021/09/08 01:40:06;;;;;;;17.27;8.28;;;;;;;12.08;57.46;100851.17;1657260;85;21150;-68
2021/09/08 01:42:32;;;;;;;12.10;8.05;;;;;;;12.06;57.52;100853.27;1656996;85;21050;-66
2021/09/08 01:44:59;;;;;;;9.50;7.37;;;;;;;12.05;57.62;100853.48;1695676;84;22526;-66
2021/09/08 01:47:25;;;;;;;11.63;8.05;;;;;;;12.02;57.71;100858.83;1679775;85;21000;-67
2021/09/08 01:49:51;;;;;;;11.45;7.83;;;;;;;12.01;57.69;100845.05;1680750;85;21082;-67
2021/09/08 01:52:19;;;;;;;9.48;7.08;;;;;;;12.00;57.71;100846.61;1651847;86;21179;-66
2021/09/08 01:54:45;;;;;;;12.70;7.92;;;;;;;11.98;57.68;100848.21;1699443;84;21573;-66
2021/09/08 01:57:11;;;;;;;14.28;8.78;;;;;;;11.98;57.60;100852.78;1678615;85;21053;-66
2021/09/08 01:59:38;;;;;;;12.43;8.13;;;;;;;11.98;57.62;100855.48;1679156;85;21004;-66
2021/09/08 02:02:04;;;;;;;12.60;8.43;;;;;;;11.98;57.53;100852.26;1651381;86;21484;-66
2021/09/08 02:04:31;;;;;;;12.80;8.60;;;;;;;11.98;57.38;100859.52;1648779;86;21094;-65
2021/09/08 02:06:57;;;;;;;17.45;9.20;;;;;;;11.98;57.40;100856.30;1679582;84;20987;-68
2021/09/08 02:09:24;;;;;;;10.90;8.13;;;;;;;11.97;57.37;100851.95;1678527;85;21591;-66
2021/09/08 02:11:50;;;;;;;15.32;8.83;;;;;;;11.97;57.41;100857.34;1680414;85;21028;-66
2021/09/08 02:14:19;;;;;;;12.23;7.97;;;;;;;11.96;57.44;100857.05;1650947;86;21056;-66
2021/09/08 02:16:47;;;;;;;14.20;8.40;;;;;;;11.95;57.58;100856.74;1651353;86;21106;-65
2021/09/08 02:19:14;;;;;;;11.70;8.28;;;;;;;11.94;57.67;100848.91;1674471;84;21635;-67
2021/09/08 02:21:40;;;;;;;11.48;7.72;;;;;;;11.91;57.79;100850.17;1645768;85;21027;-66
2021/09/08 02:24:07;;;;;;;16.77;8.38;;;;;;;11.90;57.94;100851.73;1661875;85;20932;-69
2021/09/08 02:26:35;;;;;;;14.03;8.15;;;;;;;11.87;58.00;100860.30;1675439;85;21036;-67
2021/09/08 02:29:02;;;;;;;14.15;8.55;;;;;;;11.83;58.09;100854.55;1653425;85;21525;-67
2021/09/08 02:31:28;;;;;;;12.80;8.75;;;;;;;11.80;58.12;100850.95;1648152;86;20983;-67
2021/09/08 02:33:56;;;;;;;9.80;7.58;;;;;;;11.77;58.18;100849.55;1633112;87;21011;-67
2021/09/08 02:36:23;;;;;;;13.03;7.85;;;;;;;11.75;58.33;100850.29;1638845;87;21014;-66
2021/09/08 02:38:52;;;;;;;13.68;8.38;;;;;;;11.74;58.42;100849.19;1647124;87;21033;-67
2021/09/08 02:41:18;;;;;;;11.68;7.10;;;;;;;11.72;58.37;100856.64;1672285;85;21863;-75
2021/09/08 02:43:46;;;;;;;13.43;8.03;;;;;;;11.70;58.25;100852.02;1675494;85;20944;-67
2021/09/08 02:46:14;;;;;;;13.30;9.03;;;;;;;11.69;58.23;100859.80;1659160;85;20956;-67
2021/09/08 02:48:40;;;;;;;11.57;7.85;;;;;;;11.68;58.10;100855.45;1660404;85;20951;-67
2021/09/08 02:51:08;;;;;;;11.12;7.33;;;;;;;11.66;58.06;100848.94;1648273;85;20983;-66
2021/09/08 02:53:34;;;;;;;17.50;8.18;;;;;;;11.67;58.02;100852.45;1648859;85;21118;-67
2021/09/08 02:56:03;;;;;;;11.48;7.33;;;;;;;11.66;57.90;100846.77;1621719;87;21039;-67
2021/09/08 02:58:30;;;;;;;11.03;7.45;;;;;;;11.63;57.89;100858.02;1646762;87;21046;-66
2021/09/08 03:00:57;;;;;;;12.90;8.08;;;;;;;11.62;57.95;100857.19;1626139;87;22174;-66
2021/09/08 03:03:23;;;;;;;10.70;6.95;;;;;;;11.59;57.95;100848.74;1653103;85;21456;-66
2021/09/08 03:05:50;;;;;;;10.23;7.10;;;;;;;11.59;57.92;100844.18;1635870;87;21135;-66
2021/09/08 03:08:17;;;;;;;11.80;7.67;;;;;;;11.59;57.87;100843.36;1632797;86;21028;-66
2021/09/08 03:10:44;;;;;;;12.28;7.60;;;;;;;11.58;57.86;100847.09;1620298;88;20975;-67
2021/09/08 03:13:13;;;;;;;13.18;7.75;;;;;;;11.57;57.88;100846.27;1620415;88;21020;-65
2021/09/08 03:15:41;;;;;;;15.90;9.83;;;;;;;11.59;57.70;100849.57;1630385;87;20932;-67
2021/09/08 03:18:07;;;;;;;11.90;8.38;;;;;;;11.59;57.81;100850.92;1620617;87;21951;-67
2021/09/08 03:20:35;;;;;;;13.98;8.65;;;;;;;11.60;57.80;100852.56;1617137;87;21036;-68
2021/09/08 03:23:02;;;;;;;12.88;8.00;;;;;;;11.62;57.62;100846.92;1691254;84;21044;-66
2021/09/08 03:25:28;;;;;;;11.83;8.38;;;;;;;11.62;57.44;100846.92;1699699;84;20969;-66
2021/09/08 03:27:55;;;;;;;13.45;9.05;;;;;;;11.62;57.35;100848.28;1702621;84;20993;-67
2021/09/08 03:30:21;;;;;;;10.93;8.23;;;;;;;11.64;57.42;100849.70;1682384;84;21170;-66
2021/09/08 03:32:48;;;;;;;13.25;8.00;;;;;;;11.64;57.33;100846.19;1680937;84;21012;-67
2021/09/08 03:35:14;;;;;;;11.45;8.33;;;;;;;11.65;57.32;100843.27;1689853;84;20929;-66
2021/09/08 03:37:42;;;;;;;12.10;7.75;;;;;;;11.66;57.41;100844.06;1677601;84;21488;-66
2021/09/08 03:40:10;;;;;;;13.40;8.23;;;;;;;11.64;57.36;100836.75;1671566;84;21635;-66
2021/09/08 03:42:39;;;;;;;17.82;8.78;;;;;;;11.64;57.34;100843.49;1687638;84;21119;-67
2021/09/08 03:45:09;;;;;;;14.68;8.15;;;;;;;11.63;57.32;100845.89;1695517;84;20981;-67
2021/09/08 03:47:35;;;;;;;10.90;7.37;;;;;;;11.63;57.30;100849.41;1702882;84;21053;-66
2021/09/08 03:50:04;;;;;;;11.40;7.58;;;;;;;11.64;57.16;100845.66;1681437;84;21521;-66
2021/09/08 03:52:32;;;;;;;9.73;6.72;;;;;;;11.66;57.11;100852.98;1667360;84;22632;-68
2021/09/08 03:54:59;;;;;;;11.38;8.48;;;;;;;11.68;57.18;100855.45;1651204;86;21036;-66
2021/09/08 03:57:25;;;;;;;11.22;7.50;;;;;;;11.70;57.11;100860.11;1674519;85;21514;-66
2021/09/08 03:59:52;;;;;;;12.40;6.75;;;;;;;11.69;57.13;100851.20;1654690;85;21024;-67
2021/09/08 04:02:19;;;;;;;10.30;7.50;;;;;;;11.72;57.03;100852.11;1674515;85;21012;-73
2021/09/08 04:04:46;;;;;;;12.90;7.87;;;;;;;11.74;57.09;100854.58;1692177;84;21005;-66
2021/09/08 04:07:14;;;;;;;9.03;7.05;;;;;;;11.73;56.97;100845.67;1682044;84;21288;-66
2021/09/08 04:09:40;;;;;;;13.72;7.90;;;;;;;11.75;56.89;100842.73;1691247;84;21001;-75
2021/09/08 04:12:07;;;;;;;10.75;7.28;;;;;;;11.76;56.92;100847.07;1631994;86;21112;-68
2021/09/08 04:14:34;;;;;;;13.55;7.20;;;;;;;11.77;56.76;100840.63;1644822;85;21584;-68
2021/09/08 04:17:00;;;;;;;12.80;6.97;;;;;;;11.79;56.81;100843.41;1644724;87;21078;-67
2021/09/08 04:19:26;;;;;;;10.43;7.10;;;;;;;11.82;56.79;100841.30;1678740;85;22210;-66
2021/09/08 04:21:53;;;;;;;9.53;7.08;;;;;;;11.84;56.62;100849.98;1680219;85;20956;-67
2021/09/08 04:24:19;;;;;;;9.30;7.35;;;;;;;11.86;56.48;100847.86;1680095;85;20992;-66
2021/09/08 04:26:46;;;;;;;11.65;6.90;;;;;;;11.88;56.47;100840.38;1667051;85;20980;-66
2021/09/08 04:29:14;;;;;;;10.43;7.37;;;;;;;11.88;56.62;100845.25;1680556;85;21457;-69
2021/09/08 04:31:42;;;;;;;11.97;7.85;;;;;;;11.91;56.56;100844.78;1678094;85;21201;-67
2021/09/08 04:34:08;;;;;;;11.12;6.50;;;;;;;11.93;56.52;100837.82;1676169;85;20955;-66
2021/09/08 04:36:35;;;;;;;13.03;8.25;;;;;;;11.94;56.56;100838.13;1652673;85;21556;-66
2021/09/08 04:39:02;;;;;;;15.23;7.65;;;;;;;11.94;56.49;100837.56;1652631;86;21093;-68
2021/09/08 04:41:28;;;;;;;14.13;7.78;;;;;;;11.97;56.48;100834.95;1652673;86;21015;-69
2021/09/08 04:43:55;;;;;;;11.63;7.20;;;;;;;11.98;56.37;100837.95;1653484;85;21099;-67
2021/09/08 04:46:21;;;;;;;10.10;7.30;;;;;;;12.00;56.49;100835.83;1640178;85;21054;-66
2021/09/08 04:48:48;;;;;;;11.12;7.05;;;;;;;12.01;56.41;100837.48;1680538;85;21007;-66
2021/09/08 04:51:16;;;;;;;11.65;6.95;;;;;;;12.02;56.48;100838.61;1680154;85;20920;-67
2021/09/08 04:53:44;;;;;;;14.63;6.85;;;;;;;12.04;56.44;100837.83;1671481;85;21054;-66
2021/09/08 04:56:10;;;;;;;13.45;7.53;;;;;;;12.06;56.50;100843.83;1656626;85;21529;-67
2021/09/08 04:58:38;;;;;;;13.75;7.42;;;;;;;12.06;56.73;100834.91;1680098;85;21460;-65
2021/09/08 05:01:05;;;;;;;12.15;6.97;;;;;;;12.07;56.75;100836.56;1680597;85;21509;-66
2021/09/08 05:03:33;;;;;;;15.83;8.65;;;;;;;12.07;56.88;100837.91;1680228;85;21040;-66
2021/09/08 05:05:59;;;;;;;15.03;7.28;;;;;;;12.06;57.08;100830.34;1629865;85;21030;-72
2021/09/08 05:08:26;;;;;;;11.80;6.87;;;;;;;12.06;57.23;100833.04;1679938;85;21130;-65
2021/09/08 05:10:53;;;;;;;10.18;6.72;;;;;;;12.06;57.43;100821.42;1680060;85;21072;-67
2021/09/08 05:13:19;;;;;;;10.88;7.20;;;;;;;12.07;57.58;100829.82;1633951;86;21024;-67
2021/09/08 05:15:45;;;;;;;12.65;6.92;;;;;;;12.07;57.78;100825.77;1622850;88;21111;-66
2021/09/08 05:18:13;;;;;;;14.75;8.25;;;;;;;12.05;57.98;100828.69;1703837;84;21520;-65
2021/09/08 05:20:39;;;;;;;18.77;7.10;;;;;;;12.05;58.05;100829.22;1706735;84;21406;-65
2021/09/08 05:23:07;;;;;;;13.62;7.00;;;;;;;12.05;58.24;100827.87;1679846;85;20939;-66
2021/09/08 05:25:34;;;;;;;12.40;6.40;;;;;;;12.06;58.34;100820.91;1684547;84;21079;-67
2021/09/08 05:28:00;;;;;;;21.65;8.28;;;;;;;12.09;58.39;100816.38;1680527;84;22007;-67
2021/09/08 05:30:26;;;;;;;12.47;7.45;;;;;;;12.13;58.50;100817.56;1679204;84;21036;-66
2021/09/08 05:32:53;;;;;;;11.50;7.67;;;;;;;12.17;58.63;100812.55;1668962;85;21239;-67
2021/09/08 05:35:19;;;;;;;13.72;8.03;;;;;;;12.19;58.67;100807.20;1642434;86;21015;-69
2021/09/08 05:37:47;;;;;;;11.30;8.10;;;;;;;12.23;58.89;100821.86;1706486;84;21574;-65
2021/09/08 05:40:13;;;;;;;13.35;7.67;;;;;;;12.29;58.92;100820.11;1707360;84;20955;-66
2021/09/08 05:42:41;;;;;;;24.67;8.73;;;;;;;12.35;58.90;100815.66;1699357;84;21518;-70
2021/09/08 05:45:11;;;;;;;15.32;8.13;;;;;;;12.40;58.93;100816.61;1639594;86;21923;-67
2021/09/08 05:47:37;;;;;;;18.42;9.10;;;;;;;12.46;58.90;100821.59;1624392;86;21011;-69
2021/09/08 05:50:05;;;;;;;16.15;8.68;;;;;;;12.53;58.94;100816.89;1628749;86;21019;-68
2021/09/08 05:52:32;;;;;;;16.12;9.08;;;;;;;12.59;59.00;100818.66;1668884;85;21125;-66
2021/09/08 05:54:59;;;;;;;15.90;8.48;;;;;;;12.65;59.20;100819.07;1678651;85;21511;-66
2021/09/08 05:57:26;;;;;;;12.90;6.95;;;;;;;12.73;59.30;100820.58;1662155;85;21111;-67
2021/09/08 05:59:53;;;;;;;17.98;8.63;;;;;;;12.81;59.29;100819.68;1652852;85;21040;-67
2021/09/08 06:02:19;;;;;;;19.55;9.25;;;;;;;12.89;59.24;100813.94;1662523;84;21008;-67
2021/09/08 06:04:46;;;;;;;12.45;7.90;;;;;;;12.98;59.19;100808.45;1678567;85;21023;-68
2021/09/08 06:07:13;;;;;;;20.25;8.65;;;;;;;13.07;58.96;100817.83;1663421;85;21023;-72
2021/09/08 06:09:40;;;;;;;15.65;8.60;;;;;;;13.16;58.94;100810.20;1630042;86;21526;-67
2021/09/08 06:12:07;;;;;;;17.50;8.38;;;;;;;13.25;58.81;100811.98;1652944;86;21610;-66
2021/09/08 06:14:33;;;;;;;16.17;8.33;;;;;;;13.32;58.63;100804.05;1642688;85;21551;-67
2021/09/08 06:17:00;;;;;;;18.17;9.45;;;;;;;13.42;58.42;100808.30;1639855;85;21047;-68
2021/09/08 06:19:26;;;;;;;22.13;9.25;;;;;;;13.50;58.20;100805.73;1678882;85;20991;-66
2021/09/08 06:21:54;;;;;;;21.00;7.90;;;;;;;13.58;58.03;100799.92;1679058;85;22141;-69
2021/09/08 06:24:22;;;;;;;20.92;9.65;;;;;;;13.67;57.92;100807.93;1678622;85;21623;-70
2021/09/08 06:26:50;;;;;;;14.38;8.30;;;;;;;13.75;57.69;100808.09;1665017;85;21008;-68
2021/09/08 06:29:16;;;;;;;12.43;8.20;;;;;;;13.84;57.60;100803.39;1675376;85;21063;-70
2021/09/08 06:31:43;;;;;;;19.50;9.55;;;;;;;13.93;57.41;100802.45;1652472;85;21071;-69
2021/09/08 06:34:09;;;;;;;22.07;7.78;;;;;;;14.04;57.27;100800.74;1656886;85;23350;-67
2021/09/08 06:36:36;;;;;;;17.98;8.38;;;;;;;14.14;57.04;100797.67;1625415;87;21094;-66
2021/09/08 06:39:02;;;;;;;16.10;7.62;;;;;;;14.26;57.04;100790.81;1649786;87;21007;-67
2021/09/08 06:41:30;;;;;;;14.47;7.72;;;;;;;14.36;56.81;100797.23;1626790;87;21121;-66
2021/09/08 06:43:57;;;;;;;13.10;7.03;;;;;;;14.51;56.67;100793.94;1633618;87;21050;-67
2021/09/08 06:46:23;;;;;;;19.05;7.62;;;;;;;14.62;56.56;100790.32;1654764;85;21760;-69
2021/09/08 06:48:50;;;;;;;15.80;8.50;;;;;;;14.74;56.50;100792.37;1672085;85;20985;-67
2021/09/08 06:51:16;;;;;;;16.77;8.50;;;;;;;14.85;56.15;100793.33;1642937;86;21084;-66
2021/09/08 06:53:44;;;;;;;10.75;6.85;;;;;;;14.95;56.15;100796.17;1639990;85;21036;-69
2021/09/08 06:56:11;;;;;;;21.23;8.20;;;;;;;15.06;55.81;100798.48;1652607;85;21114;-68
2021/09/08 06:58:37;;;;;;;16.75;7.90;;;;;;;15.18;55.64;100793.73;1625136;87;21628;-68
2021/09/08 07:01:03;;;;;;;20.85;7.72;;;;;;;15.27;55.23;100805.23;1660663;86;21123;-68
2021/09/08 07:03:30;;;;;;;25.02;7.97;;;;;;;15.37;54.97;100799.64;1681583;84;21106;-66
2021/09/08 07:05:56;;;;;;;18.82;8.33;;;;;;;15.47;54.75;100797.05;1699521;84;21043;-68
2021/09/08 07:08:23;;;;;;;13.00;7.55;;;;;;;15.57;54.79;100798.02;1667474;85;21031;-68
2021/09/08 07:10:50;;;;;;;14.85;6.75;;;;;;;15.67;54.50;100800.01;1633018;85;22573;-70
2021/09/08 07:13:17;;;;;;;18.20;7.30;;;;;;;15.79;54.04;100800.66;1664485;85;21034;-68
2021/09/08 07:15:44;;;;;;;12.45;6.50;;;;;;;15.92;54.02;100797.52;1678117;85;21000;-68
2021/09/08 07:18:10;;;;;;;20.27;7.17;;;;;;;16.05;53.70;100808.49;1665727;85;21047;-71
2021/09/08 07:20:40;;;;;;;15.38;6.95;;;;;;;16.16;53.62;100807.52;1662367;85;21000;-71
2021/09/08 07:23:06;;;;;;;20.52;5.87;;;;;;;16.28;53.41;100808.14;1656784;85;22256;-73
2021/09/08 07:25:32;;;;;;;16.05;7.47;;;;;;;16.40;52.92;100806.04;1656735;85;20947;-70
2021/09/08 07:27:59;;;;;;;34.08;8.68;;;;;;;16.52;52.98;100806.68;1684615;84;21087;-69
2021/09/08 07:30:26;;;;;;;21.65;7.10;;;;;;;16.64;52.95;100803.81;1683603;84;21020;-70
2021/09/08 07:32:52;;;;;;;17.77;6.80;;;;;;;16.73;52.69;100804.95;1707051;84;21531;-70
2021/09/08 07:35:18;;;;;;;17.35;7.87;;;;;;;16.84;52.52;100809.87;1651554;86;21169;-69
2021/09/08 07:37:46;;;;;;;28.95;7.65;;;;;;;16.95;51.99;100809.67;1651287;86;20982;-69
2021/09/08 07:40:13;;;;;;;14.70;7.00;;;;;;;17.06;51.50;100812.45;1617295;86;21094;-70
2021/09/08 07:42:40;;;;;;;17.50;6.37;;;;;;;17.15;51.35;100798.61;1624588;88;21090;-68
2021/09/08 07:45:08;;;;;;;19.75;6.10;;;;;;;17.23;51.18;100796.20;1625652;86;21205;-69
2021/09/08 07:47:34;;;;;;;22.52;6.87;;;;;;;17.33;51.04;100798.12;1668519;85;21139;-70
2021/09/08 07:50:00;;;;;;;20.62;6.70;;;;;;;17.42;50.80;100795.98;1680345;85;20983;-69
2021/09/08 07:52:28;;;;;;;24.23;7.90;;;;;;;17.52;50.56;100809.33;1628176;86;21046;-69
2021/09/08 07:54:54;;;;;;;16.65;7.47;;;;;;;17.61;50.03;100804.48;1649825;87;21134;-69
2021/09/08 07:57:20;;;;;;;22.67;7.53;;;;;;;17.71;50.01;100802.33;1664783;85;21536;-70
2021/09/08 07:59:46;;;;;;;13.83;6.85;;;;;;;17.80;49.57;100798.80;1655081;85;21023;-69
2021/09/08 08:02:14;;;;;;;23.30;7.15;;;;;;;17.89;49.54;100800.44;1705147;84;21500;-71
2021/09/08 08:04:40;;;;;;;15.03;6.85;;;;;;;17.99;49.54;100791.46;1706982;84;20991;-70
2021/09/08 08:07:07;;;;;;;25.30;7.12;;;;;;;18.08;49.32;100793.95;1695742;84;21486;-69
2021/09/08 08:09:35;;;;;;;17.62;6.15;;;;;;;18.15;49.08;100795.83;1673645;84;21041;-69
2021/09/08 08:12:03;;;;;;;14.70;6.40;;;;;;;18.20;48.81;100787.66;1680774;84;21361;-73
2021/09/08 08:14:29;;;;;;;19.12;6.67;;;;;;;18.27;48.80;100797.75;1704357;84;21568;-72
2021/09/08 08:16:56;;;;;;;12.28;6.70;;;;;;;18.34;48.55;100805.63;1692759;84;21088;-70
2021/09/08 08:19:23;;;;;;;19.20;8.38;;;;;;;18.39;48.75;100802.36;1701496;84;21086;-70
2021/09/08 08:21:49;;;;;;;21.85;6.97;;;;;;;18.43;48.93;100803.43;1634735;86;20997;-69
2021/09/08 08:24:16;;;;;;;18.67;7.30;;;;;;;18.50;48.98;100808.07;1656662;85;21246;-70
2021/09/08 08:26:43;;;;;;;16.87;6.35;;;;;;;18.59;48.87;100813.80;1656612;86;21068;-70
2021/09/08 08:29:09;;;;;;;22.00;8.28;;;;;;;18.66;48.11;100807.50;1611988;88;21092;-72
2021/09/08 08:31:35;;;;;;;19.75;6.42;;;;;;;18.72;47.80;100805.05;1685077;84;21029;-69
2021/09/08 08:34:02;;;;;;;11.97;6.15;;;;;;;18.78;47.43;100806.67;1676253;84;21047;-70
2021/09/08 08:36:28;;;;;;;12.82;5.83;;;;;;;18.85;47.61;100800.94;1687789;84;21197;-70
2021/09/08 08:38:54;;;;;;;15.23;5.25;;;;;;;18.91;47.91;100792.45;1675158;84;21286;-68
2021/09/08 08:41:23;;;;;;;14.70;6.08;;;;;;;19.02;47.92;100795.42;1676829;84;21124;-70
2021/09/08 08:43:50;;;;;;;9.73;4.97;;;;;;;19.13;47.42;100803.02;1666644;85;21022;-70
2021/09/08 08:46:19;;;;;;;10.28;5.10;;;;;;;19.19;47.20;100803.23;1692031;83;21002;-69
2021/09/08 08:48:46;;;;;;;8.33;4.45;;;;;;;19.23;46.67;100798.88;1695544;83;21098;-71
2021/09/08 08:51:13;;;;;;;10.90;4.35;;;;;;;19.27;46.59;100803.22;1649494;84;21533;-70
2021/09/08 08:53:40;;;;;;;13.45;5.70;;;;;;;19.33;46.50;100803.48;1691145;84;20988;-70
2021/09/08 08:56:07;;;;;;;6.17;4.33;;;;;;;19.37;46.14;100804.54;1690344;84;20937;-71
2021/09/08 08:58:33;;;;;;;12.80;5.50;;;;;;;19.44;45.93;100805.06;1696609;84;21605;-67
2021/09/08 09:01:21;;;;;;;16.95;5.10;;;;;;;19.48;45.66;100791.94;1675250;83;21266;-67
2021/09/08 09:04:05;;;;;;;8.28;4.85;;;;;;;19.51;46.14;100794.13;1691254;84;21033;-67
2021/09/08 09:06:39;;;;;;;9.90;4.50;;;;;;;19.62;45.88;100793.48;1660679;86;21046;-67
2021/09/08 09:09:14;;;;;;;9.15;4.35;;;;;;;19.73;45.58;100781.95;1675956;84;21154;-67
2021/09/08 09:11:47;;;;;;;11.68;5.35;;;;;;;19.81;44.93;100778.06;1682063;84;21104;-66
2021/09/08 09:14:14;;;;;;;7.65;6.00;;;;;;;19.91;44.99;100784.00;1663884;84;21759;-68
2021/09/08 09:16:42;;;;;;;10.85;5.85;;;;;;;19.98;45.05;100779.05;1688512;84;21016;-68
2021/09/08 09:19:10;;;;;;;6.65;4.50;;;;;;;20.02;44.89;100792.39;1671153;84;21028;-67
2021/09/08 09:21:37;;;;;;;7.70;4.30;;;;;;;20.10;44.51;100778.66;1672227;84;21548;-67
2021/09/08 09:24:06;;;;;;;8.33;4.08;;;;;;;20.17;43.92;100774.51;1676248;84;21102;-66
2021/09/08 09:26:35;;;;;;;11.30;4.47;;;;;;;20.19;43.40;100768.77;1648615;85;21182;-68
2021/09/08 09:29:18;;;;;;;6.17;4.25;;;;;;;20.20;43.56;100758.89;1672704;84;21899;-69
2021/09/08 09:31:54;;;;;;;15.80;6.03;;;;;;;20.27;43.44;100764.04;1683769;84;21126;-72
2021/09/08 09:34:21;;;;;;;8.70;4.53;;;;;;;20.32;43.41;100753.09;1664496;84;21506;-67
2021/09/08 09:36:53;;;;;;;7.33;4.20;;;;;;;20.36;43.34;100744.58;1659695;85;21109;-68
2021/09/08 09:39:21;;;;;;;11.90;5.92;;;;;;;20.40;43.17;100757.38;1678526;84;21503;-69
2021/09/08 09:41:47;;;;;;;13.22;4.00;;;;;;;20.49;42.34;100734.31;1691616;84;20952;-71
2021/09/08 09:44:14;;;;;;;12.98;5.22;;;;;;;20.55;42.40;100738.63;1684949;84;21008;-68
2021/09/08 09:46:44;;;;;;;7.00;4.30;;;;;;;20.63;42.04;100734.43;1695338;84;20956;-72
2021/09/08 09:49:12;;;;;;;9.68;4.00;;;;;;;20.70;41.92;100742.56;1668123;84;21034;-71
2021/09/08 09:51:39;;;;;;;7.37;3.90;;;;;;;20.75;41.21;100730.20;1666475;85;21872;-69
2021/09/08 09:54:06;;;;;;;6.58;3.92;;;;;;;20.78;41.37;100729.60;1646621;85;20949;-72
2021/09/08 09:56:32;;;;;;;7.95;4.28;;;;;;;20.81;40.68;100735.84;1674245;85;20937;-72
2021/09/08 09:59:00;;;;;;;7.92;4.30;;;;;;;20.84;40.71;100730.36;1674381;85;20992;-71
2021/09/08 10:01:26;;;;;;;4.75;4.10;;;;;;;20.85;41.07;100749.22;1650275;87;21069;-69
2021/09/08 10:03:53;;;;;;;10.03;4.10;;;;;;;20.92;41.18;100733.80;1673222;85;21216;-73
2021/09/08 10:06:20;;;;;;;6.62;3.80;;;;;;;20.94;41.29;100737.08;1624847;87;20951;-75
2021/09/08 10:08:49;;;;;;;5.97;4.10;;;;;;;21.02;41.22;100741.06;1674032;85;21003;-75
2021/09/08 10:11:22;;;;;;;6.80;4.10;;;;;;;21.09;41.06;100722.38;1649998;86;20967;-69
2021/09/08 10:13:57;;;;;;;7.33;4.10;;;;;;;21.16;40.45;100718.75;1633284;86;21040;-70
2021/09/08 10:16:26;;;;;;;11.10;4.75;;;;;;;21.33;40.26;100710.85;1647422;86;21128;-69
2021/09/08 10:18:54;;;;;;;5.22;3.62;;;;;;;21.33;40.26;100710.85;1667298;86;21043;-68
2021/09/08 10:21:20;;;;;;;7.95;4.10;;;;;;;21.40;40.11;100697.59;1665978;86;21023;-67
2021/09/08 10:24:00;;;;;;;18.57;5.30;;;;;;;21.43;40.27;100707.97;1634132;86;21079;-69
2021/09/08 10:26:28;;;;;;;13.90;3.92;;;;;;;21.46;40.61;100699.70;1640682;85;21123;-69
2021/09/08 10:29:05;;;;;;;9.98;3.95;;;;;;;21.56;40.26;100709.13;1622003;87;21093;-72
2021/09/08 10:31:26;;;;;;;9.33;4.22;;;;;;;21.59;39.75;100704.41;1639962;87;20992;-73
2021/09/08 10:33:55;;;;;;;7.25;4.67;;;;;;;21.59;40.04;100698.94;1672915;85;21560;-71
2021/09/08 10:36:22;;;;;;;7.75;5.00;;;;;;;21.66;40.27;100697.47;1638856;87;21091;-73
2021/09/08 10:39:13;;;;;;;12.18;4.78;;;;;;;21.79;39.59;100703.27;1648147;85;21036;-72
2021/09/08 10:41:45;;;;;;;7.58;4.20;;;;;;;21.81;39.25;100684.07;1627146;87;23333;-67
2021/09/08 10:44:14;;;;;;;10.53;4.47;;;;;;;21.87;39.38;100684.80;1648847;85;21051;-69
2021/09/08 10:46:58;;;;;;;9.80;4.10;;;;;;;21.93;39.29;100689.91;1655192;85;21027;-70
2021/09/08 10:49:43;;;;;;;;;;;;;;;22.05;39.21;100688.06;1656038;85;21603;-70
2021/09/08 10:52:14;;;;;;;9.00;4.65;;;;;;;22.22;38.66;100686.91;1671386;85;20177;-69
2021/09/08 10:55:02;;;;;;;5.85;3.95;;;;;;;22.33;38.42;100693.02;1666052;85;21176;-71
2021/09/08 10:57:47;;;;;;;6.87;3.90;;;;;;;22.41;38.06;100681.34;1617906;88;21119;-70
2021/09/08 11:00:28;;;;;;;8.88;4.78;;;;;;;22.49;38.09;100682.80;1644789;87;21111;-71
2021/09/08 11:02:55;;;;;;;14.07;5.47;;;;;;;22.54;38.12;100696.41;1645703;87;21038;-71
2021/09/08 11:05:21;;;;;;;11.08;4.12;;;;;;;22.60;37.78;100691.09;1656403;85;21039;-70
2021/09/08 11:07:50;;;;;;;8.80;4.22;;;;;;;22.66;37.74;100693.73;1661224;85;21288;-73
2021/09/08 11:10:30;;;;;;;7.22;3.72;;;;;;;22.75;37.63;100688.63;1645785;87;20983;-72
2021/09/08 11:13:01;;;;;;;11.20;4.70;;;;;;;22.79;37.53;100681.95;1635868;86;20975;-72
2021/09/08 11:15:37;;;;;;;5.35;4.20;;;;;;;22.83;37.62;100693.38;1645793;87;21118;-70
2021/09/08 11:18:11;;;;;;;6.45;4.72;;;;;;;22.90;37.38;100695.72;1642215;85;21047;-72
2021/09/08 11:20:39;;;;;;;6.80;4.60;;;;;;;22.92;37.49;100675.66;1668500;85;20978;-71
2021/09/08 11:23:12;;;;;;;8.13;4.87;;;;;;;22.95;37.31;100686.82;1647096;86;21536;-71